sensor_id;sensor_type;location;lat;lon;timestamp;pressure;altitude;pressure_sealevel;temperature;humidity
44297;BME280;51842;47.450;8.654;2022-12-17T00:01:39;95584.38;;;-3.52;97.73
44297;BME280;51842;47.450;8.654;2022-12-17T00:04:24;95582.41;;;-3.50;97.55
44297;BME280;51842;47.450;8.654;2022-12-17T00:07:08;95581.41;;;-3.49;98.04
44297;BME280;51842;47.450;8.654;2022-12-17T00:10:10;95584.47;;;-3.45;97.73
44297;BME280;51842;47.450;8.654;2022-12-17T00:12:55;95587.06;;;-3.45;98.14
44297;BME280;51842;47.450;8.654;2022-12-17T00:15:39;95592.91;;;-3.43;97.96
44297;BME280;51842;47.450;8.654;2022-12-17T00:18:23;95581.84;;;-3.45;97.80
44297;BME280;51842;47.450;8.654;2022-12-17T00:21:09;95591.75;;;-3.41;97.99
44297;BME280;51842;47.450;8.654;2022-12-17T00:23:53;95604.59;;;-3.39;98.09
44297;BME280;51842;47.450;8.654;2022-12-17T00:26:38;95603.97;;;-3.41;98.22
44297;BME280;51842;47.450;8.654;2022-12-17T00:29:31;95609.19;;;-3.41;98.54
44297;BME280;51842;47.450;8.654;2022-12-17T00:32:16;95607.38;;;-3.41;98.09
44297;BME280;51842;47.450;8.654;2022-12-17T00:35:03;95614.84;;;-3.38;98.62
44297;BME280;51842;47.450;8.654;2022-12-17T00:37:50;95614.03;;;-3.38;98.37
44297;BME280;51842;47.450;8.654;2022-12-17T00:40:37;95619.41;;;-3.40;98.61
44297;BME280;51842;47.450;8.654;2022-12-17T00:43:24;95611.94;;;-3.43;98.38
44297;BME280;51842;47.450;8.654;2022-12-17T00:46:09;95619.13;;;-3.45;98.69
44297;BME280;51842;47.450;8.654;2022-12-17T00:49:03;95619.97;;;-3.44;99.02
44297;BME280;51842;47.450;8.654;2022-12-17T00:51:56;95625.69;;;-3.49;99.20
44297;BME280;51842;47.450;8.654;2022-12-17T00:54:47;95632.50;;;-3.48;99.00
44297;BME280;51842;47.450;8.654;2022-12-17T00:57:31;95638.69;;;-3.49;99.22
44297;BME280;51842;47.450;8.654;2022-12-17T01:00:16;95631.88;;;-3.50;99.87
44297;BME280;51842;47.450;8.654;2022-12-17T01:03:08;95638.53;;;-3.47;99.78
44297;BME280;51842;47.450;8.654;2022-12-17T01:05:53;95638.34;;;-3.46;100.00
44297;BME280;51842;47.450;8.654;2022-12-17T01:08:38;95639.16;;;-3.45;100.00
44297;BME280;51842;47.450;8.654;2022-12-17T01:11:31;95652.03;;;-3.44;100.00
44297;BME280;51842;47.450;8.654;2022-12-17T01:14:18;95652.03;;;-3.44;100.00
44297;BME280;51842;47.450;8.654;2022-12-17T01:17:12;95658.94;;;-3.36;100.00
44297;BME280;51842;47.450;8.654;2022-12-17T01:19:57;95661.75;;;-3.38;100.00
44297;BME280;51842;47.450;8.654;2022-12-17T01:22:42;95662.91;;;-3.40;100.00
44297;BME280;51842;47.450;8.654;2022-12-17T01:25:26;95663.69;;;-3.40;100.00
44297;BME280;51842;47.450;8.654;2022-12-17T01:28:22;95665.16;;;-3.37;100.00
44297;BME280;51842;47.450;8.654;2022-12-17T01:31:08;95666.16;;;-3.38;100.00
44297;BME280;51842;47.450;8.654;2022-12-17T01:33:56;95665.78;;;-3.35;100.00
44297;BME280;51842;47.450;8.654;2022-12-17T01:36:44;95665.91;;;-3.29;100.00
44297;BME280;51842;47.450;8.654;2022-12-17T01:39:28;95663.09;;;-3.27;100.00
44297;BME280;51842;47.450;8.654;2022-12-17T01:42:14;95668.31;;;-3.27;100.00
44297;BME280;51842;47.450;8.654;2022-12-17T01:44:58;95675.13;;;-3.26;100.00
44297;BME280;51842;47.450;8.654;2022-12-17T01:48:07;95678.22;;;-3.22;100.00
44297;BME280;51842;47.450;8.654;2022-12-17T01:50:58;95677.22;;;-3.21;100.00
44297;BME280;51842;47.450;8.654;2022-12-17T01:53:49;95679.47;;;-3.18;100.00
44297;BME280;51842;47.450;8.654;2022-12-17T01:56:41;95682.88;;;-3.18;100.00
44297;BME280;51842;47.450;8.654;2022-12-17T01:59:57;95684.69;;;-3.18;100.00
44297;BME280;51842;47.450;8.654;2022-12-17T02:02:46;95689.72;;;-3.17;100.00
44297;BME280;51842;47.450;8.654;2022-12-17T02:09:54;95691.84;;;-3.20;100.00
44297;BME280;51842;47.450;8.654;2022-12-17T02:13:03;95696.97;;;-3.27;100.00
44297;BME280;51842;47.450;8.654;2022-12-17T02:26:37;95700.81;;;-3.38;100.00
44297;BME280;51842;47.450;8.654;2022-12-17T02:30:04;95705.91;;;-3.44;100.00
44297;BME280;51842;47.450;8.654;2022-12-17T02:32:52;95704.56;;;-3.40;100.00
44297;BME280;51842;47.450;8.654;2022-12-17T02:35:47;95704.56;;;-3.40;100.00
44297;BME280;51842;47.450;8.654;2022-12-17T02:38:32;95700.16;;;-3.40;100.00
44297;BME280;51842;47.450;8.654;2022-12-17T02:41:52;95706.25;;;-3.47;100.00
44297;BME280;51842;47.450;8.654;2022-12-17T02:44:41;95698.31;;;-3.54;100.00
44297;BME280;51842;47.450;8.654;2022-12-17T02:47:36;95701.78;;;-3.62;100.00
44297;BME280;51842;47.450;8.654;2022-12-17T02:50:21;95704.75;;;-3.65;100.00
44297;BME280;51842;47.450;8.654;2022-12-17T02:53:13;95704.78;;;-3.73;100.00
44297;BME280;51842;47.450;8.654;2022-12-17T02:55:57;95711.63;;;-3.72;100.00
44297;BME280;51842;47.450;8.654;2022-12-17T02:58:42;95706.75;;;-3.75;100.00
44297;BME280;51842;47.450;8.654;2022-12-17T03:01:26;95714.13;;;-3.79;100.00
44297;BME280;51842;47.450;8.654;2022-12-17T03:04:13;95704.53;;;-3.86;100.00
44297;BME280;51842;47.450;8.654;2022-12-17T03:07:00;95719.03;;;-3.92;100.00
44297;BME280;51842;47.450;8.654;2022-12-17T03:09:47;95722.97;;;-3.96;100.00
44297;BME280;51842;47.450;8.654;2022-12-17T03:12:34;95718.47;;;-4.02;100.00
44297;BME280;51842;47.450;8.654;2022-12-17T03:15:18;95720.94;;;-4.09;100.00
44297;BME280;51842;47.450;8.654;2022-12-17T03:18:03;95720.34;;;-4.19;100.00
44297;BME280;51842;47.450;8.654;2022-12-17T03:20:59;95713.69;;;-4.30;100.00
44297;BME280;51842;47.450;8.654;2022-12-17T03:23:46;95721.56;;;-4.38;100.00
44297;BME280;51842;47.450;8.654;2022-12-17T03:26:31;95723.22;;;-4.53;100.00
44297;BME280;51842;47.450;8.654;2022-12-17T03:29:18;95735.59;;;-4.63;100.00
44297;BME280;51842;47.450;8.654;2022-12-17T03:32:03;95738.88;;;-4.70;100.00
44297;BME280;51842;47.450;8.654;2022-12-17T03:34:47;95732.88;;;-4.78;100.00
44297;BME280;51842;47.450;8.654;2022-12-17T03:37:34;95730.94;;;-4.84;100.00
44297;BME280;51842;47.450;8.654;2022-12-17T03:40:21;95743.59;;;-4.90;100.00
44297;BME280;51842;47.450;8.654;2022-12-17T03:43:11;95741.66;;;-4.96;100.00
44297;BME280;51842;47.450;8.654;2022-12-17T03:45:56;95750.09;;;-5.02;100.00
44297;BME280;51842;47.450;8.654;2022-12-17T03:48:47;95749.78;;;-5.15;100.00
44297;BME280;51842;47.450;8.654;2022-12-17T03:51:31;95747.53;;;-5.26;100.00
44297;BME280;51842;47.450;8.654;2022-12-17T03:54:18;95757.56;;;-5.40;99.90
44297;BME280;51842;47.450;8.654;2022-12-17T03:57:03;95756.78;;;-5.48;100.00
44297;BME280;51842;47.450;8.654;2022-12-17T03:59:55;95753.97;;;-5.55;100.00
44297;BME280;51842;47.450;8.654;2022-12-17T04:02:39;95749.63;;;-5.54;100.00
44297;BME280;51842;47.450;8.654;2022-12-17T04:05:23;95764.38;;;-5.55;100.00
44297;BME280;51842;47.450;8.654;2022-12-17T04:08:08;95762.75;;;-5.56;100.00
44297;BME280;51842;47.450;8.654;2022-12-17T04:10:53;95757.72;;;-5.49;100.00
44297;BME280;51842;47.450;8.654;2022-12-17T04:13:37;95764.06;;;-5.44;100.00
44297;BME280;51842;47.450;8.654;2022-12-17T04:16:21;95761.28;;;-5.42;100.00
44297;BME280;51842;47.450;8.654;2022-12-17T04:19:05;95755.78;;;-5.39;100.00
44297;BME280;51842;47.450;8.654;2022-12-17T04:21:49;95758.06;;;-5.36;100.00
44297;BME280;51842;47.450;8.654;2022-12-17T04:24:33;95768.13;;;-5.33;100.00
44297;BME280;51842;47.450;8.654;2022-12-17T04:27:17;95767.50;;;-5.35;100.00
44297;BME280;51842;47.450;8.654;2022-12-17T04:30:02;95771.03;;;-5.36;100.00
44297;BME280;51842;47.450;8.654;2022-12-17T04:32:49;95768.75;;;-5.39;100.00
44297;BME280;51842;47.450;8.654;2022-12-17T04:35:37;95772.19;;;-5.39;100.00
44297;BME280;51842;47.450;8.654;2022-12-17T04:38:21;95766.50;;;-5.42;100.00
44297;BME280;51842;47.450;8.654;2022-12-17T04:41:11;95769.41;;;-5.45;100.00
44297;BME280;51842;47.450;8.654;2022-12-17T04:44:01;95773.78;;;-5.46;100.00
44297;BME280;51842;47.450;8.654;2022-12-17T04:46:49;95771.69;;;-5.50;100.00
44297;BME280;51842;47.450;8.654;2022-12-17T04:49:40;95781.25;;;-5.51;100.00
44297;BME280;51842;47.450;8.654;2022-12-17T04:52:28;95790.00;;;-5.52;100.00
44297;BME280;51842;47.450;8.654;2022-12-17T04:55:19;95785.00;;;-5.53;100.00
44297;BME280;51842;47.450;8.654;2022-12-17T04:58:09;95782.22;;;-5.52;100.00
44297;BME280;51842;47.450;8.654;2022-12-17T05:00:56;95792.28;;;-5.49;100.00
44297;BME280;51842;47.450;8.654;2022-12-17T05:03:41;95791.81;;;-5.44;100.00
44297;BME280;51842;47.450;8.654;2022-12-17T05:06:29;95795.88;;;-5.42;100.00
44297;BME280;51842;47.450;8.654;2022-12-17T05:09:13;95800.09;;;-5.41;100.00
44297;BME280;51842;47.450;8.654;2022-12-17T05:11:58;95797.19;;;-5.38;100.00
44297;BME280;51842;47.450;8.654;2022-12-17T05:14:45;95803.53;;;-5.32;100.00
44297;BME280;51842;47.450;8.654;2022-12-17T05:17:29;95805.81;;;-5.29;100.00
44297;BME280;51842;47.450;8.654;2022-12-17T05:20:22;95804.00;;;-5.28;100.00
44297;BME280;51842;47.450;8.654;2022-12-17T05:23:08;95800.44;;;-5.27;100.00
44297;BME280;51842;47.450;8.654;2022-12-17T05:26:10;95797.84;;;-5.27;100.00
44297;BME280;51842;47.450;8.654;2022-12-17T05:28:57;95799.81;;;-5.29;100.00
44297;BME280;51842;47.450;8.654;2022-12-17T05:31:41;95809.22;;;-5.28;100.00
44297;BME280;51842;47.450;8.654;2022-12-17T05:34:29;95805.31;;;-5.32;100.00
44297;BME280;51842;47.450;8.654;2022-12-17T05:37:16;95808.72;;;-5.32;100.00
44297;BME280;51842;47.450;8.654;2022-12-17T05:40:00;95823.16;;;-5.38;100.00
44297;BME280;51842;47.450;8.654;2022-12-17T05:43:05;95820.38;;;-5.44;100.00
44297;BME280;51842;47.450;8.654;2022-12-17T05:45:53;95820.53;;;-5.46;100.00
44297;BME280;51842;47.450;8.654;2022-12-17T05:48:40;95821.19;;;-5.44;100.00
44297;BME280;51842;47.450;8.654;2022-12-17T05:51:24;95824.59;;;-5.43;100.00
44297;BME280;51842;47.450;8.654;2022-12-17T05:54:08;95816.97;;;-5.45;100.00
44297;BME280;51842;47.450;8.654;2022-12-17T05:56:54;95825.88;;;-5.47;100.00
44297;BME280;51842;47.450;8.654;2022-12-17T05:59:39;95822.31;;;-5.46;100.00
44297;BME280;51842;47.450;8.654;2022-12-17T06:02:24;95825.41;;;-5.43;100.00
44297;BME280;51842;47.450;8.654;2022-12-17T06:05:21;95835.78;;;-5.43;100.00
44297;BME280;51842;47.450;8.654;2022-12-17T06:08:08;95835.16;;;-5.45;100.00
44297;BME280;51842;47.450;8.654;2022-12-17T06:10:58;95840.97;;;-5.51;100.00
44297;BME280;51842;47.450;8.654;2022-12-17T06:13:43;95847.97;;;-5.51;100.00
44297;BME280;51842;47.450;8.654;2022-12-17T06:16:28;95840.31;;;-5.53;100.00
44297;BME280;51842;47.450;8.654;2022-12-17T06:19:12;95850.88;;;-5.54;100.00
44297;BME280;51842;47.450;8.654;2022-12-17T06:21:57;95848.59;;;-5.57;100.00
44297;BME280;51842;47.450;8.654;2022-12-17T06:24:41;95855.41;;;-5.56;100.00
44297;BME280;51842;47.450;8.654;2022-12-17T06:27:26;95861.41;;;-5.56;100.00
44297;BME280;51842;47.450;8.654;2022-12-17T06:30:11;95855.72;;;-5.60;100.00
44297;BME280;51842;47.450;8.654;2022-12-17T06:33:09;95856.03;;;-5.63;100.00
44297;BME280;51842;47.450;8.654;2022-12-17T06:35:57;95860.84;;;-5.68;100.00
44297;BME280;51842;47.450;8.654;2022-12-17T06:38:43;95852.75;;;-5.73;100.00
44297;BME280;51842;47.450;8.654;2022-12-17T06:41:30;95849.50;;;-5.75;100.00
44297;BME280;51842;47.450;8.654;2022-12-17T06:44:20;95856.47;;;-5.75;100.00
44297;BME280;51842;47.450;8.654;2022-12-17T06:47:08;95867.50;;;-5.73;100.00
44297;BME280;51842;47.450;8.654;2022-12-17T06:49:52;95869.09;;;-5.81;100.00
44297;BME280;51842;47.450;8.654;2022-12-17T06:52:36;95865.69;;;-5.81;100.00
44297;BME280;51842;47.450;8.654;2022-12-17T06:55:20;95873.09;;;-5.86;100.00
44297;BME280;51842;47.450;8.654;2022-12-17T06:58:04;95879.44;;;-5.89;100.00
